sensor_id;sensor_type;location;lat;lon;timestamp;P1;durP1;ratioP1;P2;durP2;ratioP2
20486;SDS011;10402;49.012;8.370;2023-06-26T00:01:25;770.50;;;730.90;;
20486;SDS011;10402;49.012;8.370;2023-06-26T00:03:54;774.57;;;734.97;;
20486;SDS011;10402;49.012;8.370;2023-06-26T00:06:20;752.37;;;715.37;;
20486;SDS011;10402;49.012;8.370;2023-06-26T00:08:45;750.73;;;713.03;;
20486;SDS011;10402;49.012;8.370;2023-06-26T00:11:11;738.60;;;702.33;;
20486;SDS011;10402;49.012;8.370;2023-06-26T00:13:36;748.87;;;711.53;;
20486;SDS011;10402;49.012;8.370;2023-06-26T00:16:02;736.80;;;700.73;;
20486;SDS011;10402;49.012;8.370;2023-06-26T00:18:28;734.03;;;697.33;;
20486;SDS011;10402;49.012;8.370;2023-06-26T00:20:54;724.20;;;689.03;;
20486;SDS011;10402;49.012;8.370;2023-06-26T00:23:19;733.40;;;696.93;;
20486;SDS011;10402;49.012;8.370;2023-06-26T00:25:45;729.00;;;693.13;;
20486;SDS011;10402;49.012;8.370;2023-06-26T00:28:11;721.23;;;685.50;;
20486;SDS011;10402;49.012;8.370;2023-06-26T00:30:36;733.83;;;696.83;;
20486;SDS011;10402;49.012;8.370;2023-06-26T00:33:02;718.83;;;682.37;;
20486;SDS011;10402;49.012;8.370;2023-06-26T00:35:27;720.67;;;684.13;;
20486;SDS011;10402;49.012;8.370;2023-06-26T00:37:53;732.90;;;696.07;;
20486;SDS011;10402;49.012;8.370;2023-06-26T00:40:18;755.90;;;716.70;;
20486;SDS011;10402;49.012;8.370;2023-06-26T00:42:44;734.57;;;697.00;;
20486;SDS011;10402;49.012;8.370;2023-06-26T00:45:10;737.07;;;699.73;;
20486;SDS011;10402;49.012;8.370;2023-06-26T00:47:35;751.93;;;713.23;;
20486;SDS011;10402;49.012;8.370;2023-06-26T00:50:02;745.40;;;707.13;;
20486;SDS011;10402;49.012;8.370;2023-06-26T00:52:28;770.47;;;730.00;;
20486;SDS011;10402;49.012;8.370;2023-06-26T00:54:54;775.53;;;734.97;;
20486;SDS011;10402;49.012;8.370;2023-06-26T00:57:20;755.37;;;716.60;;
20486;SDS011;10402;49.012;8.370;2023-06-26T00:59:46;773.10;;;732.77;;
20486;SDS011;10402;49.012;8.370;2023-06-26T01:02:11;769.33;;;729.90;;
20486;SDS011;10402;49.012;8.370;2023-06-26T01:04:37;787.13;;;746.97;;
20486;SDS011;10402;49.012;8.370;2023-06-26T01:07:11;787.60;;;746.97;;
20486;SDS011;10402;49.012;8.370;2023-06-26T01:09:37;799.93;;;757.97;;
20486;SDS011;10402;49.012;8.370;2023-06-26T01:12:02;790.53;;;748.73;;
20486;SDS011;10402;49.012;8.370;2023-06-26T01:14:28;803.80;;;760.83;;
20486;SDS011;10402;49.012;8.370;2023-06-26T01:16:54;826.60;;;781.90;;
20486;SDS011;10402;49.012;8.370;2023-06-26T01:19:27;834.47;;;788.97;;
20486;SDS011;10402;49.012;8.370;2023-06-26T01:22:18;821.27;;;777.27;;
20486;SDS011;10402;49.012;8.370;2023-06-26T01:25:00;836.50;;;792.10;;
20486;SDS011;10402;49.012;8.370;2023-06-26T01:27:38;829.00;;;785.33;;
20486;SDS011;10402;49.012;8.370;2023-06-26T01:30:04;831.20;;;787.17;;
20486;SDS011;10402;49.012;8.370;2023-06-26T01:32:31;828.83;;;785.07;;
20486;SDS011;10402;49.012;8.370;2023-06-26T01:34:58;816.90;;;774.03;;
20486;SDS011;10402;49.012;8.370;2023-06-26T01:37:24;823.40;;;780.67;;
20486;SDS011;10402;49.012;8.370;2023-06-26T01:39:50;827.97;;;785.00;;
20486;SDS011;10402;49.012;8.370;2023-06-26T01:42:16;826.90;;;784.23;;
20486;SDS011;10402;49.012;8.370;2023-06-26T01:44:44;824.57;;;781.23;;
20486;SDS011;10402;49.012;8.370;2023-06-26T01:47:10;819.07;;;777.00;;
20486;SDS011;10402;49.012;8.370;2023-06-26T01:50:00;809.00;;;767.17;;
20486;SDS011;10402;49.012;8.370;2023-06-26T01:55:08;798.37;;;757.83;;
20486;SDS011;10402;49.012;8.370;2023-06-26T01:57:45;801.77;;;760.43;;
20486;SDS011;10402;49.012;8.370;2023-06-26T02:00:13;796.83;;;755.93;;
20486;SDS011;10402;49.012;8.370;2023-06-26T02:02:42;800.57;;;759.30;;
20486;SDS011;10402;49.012;8.370;2023-06-26T02:05:08;799.57;;;757.80;;
20486;SDS011;10402;49.012;8.370;2023-06-26T02:07:34;806.37;;;763.90;;
20486;SDS011;10402;49.012;8.370;2023-06-26T02:10:00;799.50;;;757.77;;
20486;SDS011;10402;49.012;8.370;2023-06-26T02:12:25;792.27;;;750.93;;
20486;SDS011;10402;49.012;8.370;2023-06-26T02:14:51;774.27;;;734.37;;
20486;SDS011;10402;49.012;8.370;2023-06-26T02:17:17;797.60;;;755.33;;
20486;SDS011;10402;49.012;8.370;2023-06-26T02:19:42;785.77;;;745.00;;
20486;SDS011;10402;49.012;8.370;2023-06-26T02:22:15;780.50;;;740.10;;
20486;SDS011;10402;49.012;8.370;2023-06-26T02:24:41;771.00;;;730.80;;
20486;SDS011;10402;49.012;8.370;2023-06-26T02:27:08;764.13;;;724.60;;
20486;SDS011;10402;49.012;8.370;2023-06-26T02:29:34;776.53;;;735.83;;
20486;SDS011;10402;49.012;8.370;2023-06-26T02:31:59;763.77;;;723.97;;
20486;SDS011;10402;49.012;8.370;2023-06-26T02:34:25;759.43;;;719.37;;
20486;SDS011;10402;49.012;8.370;2023-06-26T02:36:50;763.23;;;723.13;;
20486;SDS011;10402;49.012;8.370;2023-06-26T02:39:19;755.00;;;715.03;;
20486;SDS011;10402;49.012;8.370;2023-06-26T02:41:45;760.57;;;720.90;;
20486;SDS011;10402;49.012;8.370;2023-06-26T02:44:10;736.27;;;698.27;;
20486;SDS011;10402;49.012;8.370;2023-06-26T02:46:37;743.07;;;704.53;;
20486;SDS011;10402;49.012;8.370;2023-06-26T02:49:03;748.87;;;709.73;;
20486;SDS011;10402;49.012;8.370;2023-06-26T02:51:29;752.30;;;712.87;;
20486;SDS011;10402;49.012;8.370;2023-06-26T02:53:54;750.17;;;710.57;;
20486;SDS011;10402;49.012;8.370;2023-06-26T02:56:20;761.87;;;722.70;;
20486;SDS011;10402;49.012;8.370;2023-06-26T02:58:45;760.43;;;720.73;;
20486;SDS011;10402;49.012;8.370;2023-06-26T03:01:11;753.33;;;714.57;;
20486;SDS011;10402;49.012;8.370;2023-06-26T03:03:36;759.43;;;719.63;;
20486;SDS011;10402;49.012;8.370;2023-06-26T03:06:08;773.27;;;732.23;;
20486;SDS011;10402;49.012;8.370;2023-06-26T03:08:37;781.13;;;739.40;;
20486;SDS011;10402;49.012;8.370;2023-06-26T03:11:04;764.30;;;723.50;;
20486;SDS011;10402;49.012;8.370;2023-06-26T03:13:30;773.97;;;732.70;;
20486;SDS011;10402;49.012;8.370;2023-06-26T03:15:55;763.43;;;722.77;;
20486;SDS011;10402;49.012;8.370;2023-06-26T03:18:21;758.87;;;718.07;;
20486;SDS011;10402;49.012;8.370;2023-06-26T03:20:46;759.80;;;719.13;;
20486;SDS011;10402;49.012;8.370;2023-06-26T03:23:13;778.20;;;736.13;;
20486;SDS011;10402;49.012;8.370;2023-06-26T03:25:38;767.50;;;725.80;;
20486;SDS011;10402;49.012;8.370;2023-06-26T03:28:04;776.60;;;734.47;;
20486;SDS011;10402;49.012;8.370;2023-06-26T03:30:29;768.00;;;726.27;;
20486;SDS011;10402;49.012;8.370;2023-06-26T03:32:55;778.50;;;736.27;;
20486;SDS011;10402;49.012;8.370;2023-06-26T03:35:21;744.70;;;705.03;;
20486;SDS011;10402;49.012;8.370;2023-06-26T03:37:48;753.60;;;712.97;;
20486;SDS011;10402;49.012;8.370;2023-06-26T03:40:13;750.73;;;710.40;;
20486;SDS011;10402;49.012;8.370;2023-06-26T03:42:39;752.10;;;711.87;;
20486;SDS011;10402;49.012;8.370;2023-06-26T03:45:05;737.70;;;698.27;;
20486;SDS011;10402;49.012;8.370;2023-06-26T03:47:31;728.97;;;690.27;;
20486;SDS011;10402;49.012;8.370;2023-06-26T03:49:56;725.43;;;687.27;;
20486;SDS011;10402;49.012;8.370;2023-06-26T03:52:22;731.33;;;692.40;;
20486;SDS011;10402;49.012;8.370;2023-06-26T03:54:47;734.57;;;695.43;;
20486;SDS011;10402;49.012;8.370;2023-06-26T03:57:13;724.50;;;686.57;;
20486;SDS011;10402;49.012;8.370;2023-06-26T03:59:39;737.57;;;698.57;;
20486;SDS011;10402;49.012;8.370;2023-06-26T04:02:05;733.10;;;694.67;;
20486;SDS011;10402;49.012;8.370;2023-06-26T04:04:30;724.10;;;686.53;;
20486;SDS011;10402;49.012;8.370;2023-06-26T04:06:56;729.30;;;691.33;;
20486;SDS011;10402;49.012;8.370;2023-06-26T04:09:24;735.23;;;696.87;;
20486;SDS011;10402;49.012;8.370;2023-06-26T04:11:50;716.63;;;680.27;;
20486;SDS011;10402;49.012;8.370;2023-06-26T04:14:15;722.73;;;685.83;;
20486;SDS011;10402;49.012;8.370;2023-06-26T04:16:41;725.77;;;688.60;;
20486;SDS011;10402;49.012;8.370;2023-06-26T04:19:07;730.57;;;693.47;;
20486;SDS011;10402;49.012;8.370;2023-06-26T04:21:34;713.50;;;677.87;;
20486;SDS011;10402;49.012;8.370;2023-06-26T04:24:00;722.17;;;686.10;;
20486;SDS011;10402;49.012;8.370;2023-06-26T04:26:26;724.70;;;688.93;;
20486;SDS011;10402;49.012;8.370;2023-06-26T04:28:52;711.80;;;676.67;;
20486;SDS011;10402;49.012;8.370;2023-06-26T04:31:18;728.20;;;692.17;;
20486;SDS011;10402;49.012;8.370;2023-06-26T04:33:44;713.50;;;678.13;;
20486;SDS011;10402;49.012;8.370;2023-06-26T04:36:09;698.10;;;663.93;;
20486;SDS011;10402;49.012;8.370;2023-06-26T04:38:36;712.13;;;676.80;;
20486;SDS011;10402;49.012;8.370;2023-06-26T04:41:01;715.13;;;679.77;;
20486;SDS011;10402;49.012;8.370;2023-06-26T04:43:27;715.83;;;680.70;;
20486;SDS011;10402;49.012;8.370;2023-06-26T04:45:53;699.63;;;665.33;;
20486;SDS011;10402;49.012;8.370;2023-06-26T04:48:19;733.53;;;696.40;;
20486;SDS011;10402;49.012;8.370;2023-06-26T04:50:45;714.43;;;678.77;;
20486;SDS011;10402;49.012;8.370;2023-06-26T04:53:18;728.30;;;691.50;;
20486;SDS011;10402;49.012;8.370;2023-06-26T04:55:48;724.53;;;688.20;;
20486;SDS011;10402;49.012;8.370;2023-06-26T04:58:14;756.27;;;717.43;;
20486;SDS011;10402;49.012;8.370;2023-06-26T05:00:40;734.13;;;696.60;;
20486;SDS011;10402;49.012;8.370;2023-06-26T05:03:08;731.37;;;693.93;;
20486;SDS011;10402;49.012;8.370;2023-06-26T05:05:36;735.43;;;698.33;;
20486;SDS011;10402;49.012;8.370;2023-06-26T05:08:12;745.10;;;707.10;;
20486;SDS011;10402;49.012;8.370;2023-06-26T05:10:42;752.63;;;714.27;;
20486;SDS011;10402;49.012;8.370;2023-06-26T05:13:08;731.77;;;694.57;;
20486;SDS011;10402;49.012;8.370;2023-06-26T05:15:34;734.37;;;697.10;;
20486;SDS011;10402;49.012;8.370;2023-06-26T05:18:00;749.60;;;711.63;;
20486;SDS011;10402;49.012;8.370;2023-06-26T05:20:25;741.37;;;702.93;;
20486;SDS011;10402;49.012;8.370;2023-06-26T05:22:51;754.80;;;715.43;;
20486;SDS011;10402;49.012;8.370;2023-06-26T05:25:17;746.43;;;707.67;;
20486;SDS011;10402;49.012;8.370;2023-06-26T05:27:46;742.03;;;703.07;;
20486;SDS011;10402;49.012;8.370;2023-06-26T05:30:12;748.23;;;709.90;;
20486;SDS011;10402;49.012;8.370;2023-06-26T05:32:38;749.07;;;710.53;;
20486;SDS011;10402;49.012;8.370;2023-06-26T05:35:05;755.07;;;715.07;;
20486;SDS011;10402;49.012;8.370;2023-06-26T05:37:32;757.63;;;718.37;;
20486;SDS011;10402;49.012;8.370;2023-06-26T05:39:59;744.87;;;706.47;;
20486;SDS011;10402;49.012;8.370;2023-06-26T05:42:26;722.07;;;684.70;;
20486;SDS011;10402;49.012;8.370;2023-06-26T05:44:53;750.93;;;712.27;;
20486;SDS011;10402;49.012;8.370;2023-06-26T05:47:18;734.77;;;697.40;;
20486;SDS011;10402;49.012;8.370;2023-06-26T05:49:44;718.13;;;682.20;;
20486;SDS011;10402;49.012;8.370;2023-06-26T05:52:10;730.90;;;694.53;;
20486;SDS011;10402;49.012;8.370;2023-06-26T05:54:36;706.43;;;671.07;;
20486;SDS011;10402;49.012;8.370;2023-06-26T05:57:02;696.13;;;662.07;;
20486;SDS011;10402;49.012;8.370;2023-06-26T05:59:29;692.43;;;659.03;;
20486;SDS011;10402;49.012;8.370;2023-06-26T06:01:57;687.97;;;654.97;;
20486;SDS011;10402;49.012;8.370;2023-06-26T06:04:22;697.10;;;663.27;;
20486;SDS011;10402;49.012;8.370;2023-06-26T06:06:48;684.60;;;651.53;;
20486;SDS011;10402;49.012;8.370;2023-06-26T06:09:13;702.47;;;669.03;;
20486;SDS011;10402;49.012;8.370;2023-06-26T06:11:39;697.70;;;663.60;;
20486;SDS011;10402;49.012;8.370;2023-06-26T06:14:05;697.43;;;663.77;;
20486;SDS011;10402;49.012;8.370;2023-06-26T06:16:30;695.20;;;661.27;;
20486;SDS011;10402;49.012;8.370;2023-06-26T06:18:56;711.20;;;675.97;;
20486;SDS011;10402;49.012;8.370;2023-06-26T06:21:22;721.40;;;686.03;;
20486;SDS011;10402;49.012;8.370;2023-06-26T06:23:47;732.20;;;695.90;;
20486;SDS011;10402;49.012;8.370;2023-06-26T06:26:13;729.23;;;692.60;;
20486;SDS011;10402;49.012;8.370;2023-06-26T06:28:41;743.83;;;706.27;;
20486;SDS011;10402;49.012;8.370;2023-06-26T06:31:07;745.37;;;707.57;;
20486;SDS011;10402;49.012;8.370;2023-06-26T06:33:32;766.17;;;726.30;;
20486;SDS011;10402;49.012;8.370;2023-06-26T06:35:58;768.10;;;728.47;;
20486;SDS011;10402;49.012;8.370;2023-06-26T06:38:23;768.80;;;728.57;;
20486;SDS011;10402;49.012;8.370;2023-06-26T06:40:49;779.60;;;738.67;;
20486;SDS011;10402;49.012;8.370;2023-06-26T06:43:15;783.73;;;741.87;;
20486;SDS011;10402;49.012;8.370;2023-06-26T06:45:41;791.73;;;749.03;;
20486;SDS011;10402;49.012;8.370;2023-06-26T06:48:07;805.83;;;761.83;;
20486;SDS011;10402;49.012;8.370;2023-06-26T06:50:32;800.60;;;756.27;;
20486;SDS011;10402;49.012;8.370;2023-06-26T06:52:58;803.70;;;759.23;;
20486;SDS011;10402;49.012;8.370;2023-06-26T06:55:23;827.20;;;780.57;;
20486;SDS011;10402;49.012;8.370;2023-06-26T06:57:50;827.33;;;780.70;;
20486;SDS011;10402;49.012;8.370;2023-06-26T07:00:16;816.73;;;770.73;;
20486;SDS011;10402;49.012;8.370;2023-06-26T07:02:42;833.37;;;786.23;;
20486;SDS011;10402;49.012;8.370;2023-06-26T07:05:09;838.07;;;790.80;;
20486;SDS011;10402;49.012;8.370;2023-06-26T07:07:35;829.37;;;783.33;;
20486;SDS011;10402;49.012;8.370;2023-06-26T07:10:06;833.40;;;786.60;;
20486;SDS011;10402;49.012;8.370;2023-06-26T07:12:33;826.50;;;780.63;;
20486;SDS011;10402;49.012;8.370;2023-06-26T07:14:59;834.00;;;787.73;;
20486;SDS011;10402;49.012;8.370;2023-06-26T07:17:26;824.93;;;779.27;;
20486;SDS011;10402;49.012;8.370;2023-06-26T07:19:51;840.77;;;794.00;;
20486;SDS011;10402;49.012;8.370;2023-06-26T07:22:17;844.37;;;797.40;;
20486;SDS011;10402;49.012;8.370;2023-06-26T07:24:45;831.87;;;785.77;;
20486;SDS011;10402;49.012;8.370;2023-06-26T07:27:17;835.07;;;789.17;;
20486;SDS011;10402;49.012;8.370;2023-06-26T07:29:43;814.33;;;769.90;;
20486;SDS011;10402;49.012;8.370;2023-06-26T07:32:09;828.70;;;783.70;;
20486;SDS011;10402;49.012;8.370;2023-06-26T07:34:35;818.30;;;773.70;;
20486;SDS011;10402;49.012;8.370;2023-06-26T07:37:01;820.27;;;775.57;;
20486;SDS011;10402;49.012;8.370;2023-06-26T07:39:26;814.53;;;770.23;;
20486;SDS011;10402;49.012;8.370;2023-06-26T07:41:52;797.40;;;754.03;;
20486;SDS011;10402;49.012;8.370;2023-06-26T07:44:17;812.23;;;768.13;;
20486;SDS011;10402;49.012;8.370;2023-06-26T07:46:43;811.47;;;767.00;;
20486;SDS011;10402;49.012;8.370;2023-06-26T07:49:09;811.17;;;767.23;;
20486;SDS011;10402;49.012;8.370;2023-06-26T07:51:36;820.27;;;775.60;;
20486;SDS011;10402;49.012;8.370;2023-06-26T07:54:01;810.53;;;766.60;;
20486;SDS011;10402;49.012;8.370;2023-06-26T07:56:27;816.60;;;772.20;;
20486;SDS011;10402;49.012;8.370;2023-06-26T07:58:52;815.27;;;771.20;;
20486;SDS011;10402;49.012;8.370;2023-06-26T08:01:18;818.27;;;773.33;;
20486;SDS011;10402;49.012;8.370;2023-06-26T08:03:43;808.37;;;764.67;;
20486;SDS011;10402;49.012;8.370;2023-06-26T08:06:09;830.87;;;784.90;;
20486;SDS011;10402;49.012;8.370;2023-06-26T08:08:35;810.40;;;766.73;;
20486;SDS011;10402;49.012;8.370;2023-06-26T08:11:00;818.70;;;774.30;;
20486;SDS011;10402;49.012;8.370;2023-06-26T08:13:27;810.70;;;767.53;;
20486;SDS011;10402;49.012;8.370;2023-06-26T08:15:53;835.67;;;789.50;;
20486;SDS011;10402;49.012;8.370;2023-06-26T08:18:19;821.57;;;777.07;;
20486;SDS011;10402;49.012;8.370;2023-06-26T08:20:45;826.53;;;781.63;;
20486;SDS011;10402;49.012;8.370;2023-06-26T08:23:11;830.93;;;785.40;;
20486;SDS011;10402;49.012;8.370;2023-06-26T08:25:36;818.87;;;774.93;;
20486;SDS011;10402;49.012;8.370;2023-06-26T08:28:02;828.90;;;783.63;;
20486;SDS011;10402;49.012;8.370;2023-06-26T08:30:28;836.40;;;790.70;;
20486;SDS011;10402;49.012;8.370;2023-06-26T08:32:55;833.00;;;787.77;;
20486;SDS011;10402;49.012;8.370;2023-06-26T08:35:20;829.30;;;783.63;;
20486;SDS011;10402;49.012;8.370;2023-06-26T08:37:46;829.70;;;784.80;;
20486;SDS011;10402;49.012;8.370;2023-06-26T08:40:12;825.43;;;780.93;;
20486;SDS011;10402;49.012;8.370;2023-06-26T08:42:41;826.33;;;781.33;;
20486;SDS011;10402;49.012;8.370;2023-06-26T08:45:07;821.97;;;777.40;;
20486;SDS011;10402;49.012;8.370;2023-06-26T08:47:33;817.37;;;773.27;;
20486;SDS011;10402;49.012;8.370;2023-06-26T08:50:01;808.80;;;765.23;;
20486;SDS011;10402;49.012;8.370;2023-06-26T08:52:34;804.23;;;761.07;;
20486;SDS011;10402;49.012;8.370;2023-06-26T08:55:02;810.20;;;766.50;;
20486;SDS011;10402;49.012;8.370;2023-06-26T08:57:33;824.80;;;780.00;;
20486;SDS011;10402;49.012;8.370;2023-06-26T09:00:00;822.27;;;777.60;;
20486;SDS011;10402;49.012;8.370;2023-06-26T09:02:26;812.80;;;769.17;;
20486;SDS011;10402;49.012;8.370;2023-06-26T09:04:52;818.67;;;774.33;;
20486;SDS011;10402;49.012;8.370;2023-06-26T09:07:18;815.70;;;771.83;;
20486;SDS011;10402;49.012;8.370;2023-06-26T09:09:44;815.13;;;771.07;;
20486;SDS011;10402;49.012;8.370;2023-06-26T09:12:09;831.37;;;785.80;;
20486;SDS011;10402;49.012;8.370;2023-06-26T09:14:36;818.50;;;774.03;;
20486;SDS011;10402;49.012;8.370;2023-06-26T09:17:02;811.63;;;767.87;;
20486;SDS011;10402;49.012;8.370;2023-06-26T09:19:28;830.07;;;784.60;;
20486;SDS011;10402;49.012;8.370;2023-06-26T09:21:54;825.00;;;780.13;;
20486;SDS011;10402;49.012;8.370;2023-06-26T09:24:20;826.00;;;781.13;;
20486;SDS011;10402;49.012;8.370;2023-06-26T09:26:47;831.23;;;786.17;;
20486;SDS011;10402;49.012;8.370;2023-06-26T09:29:14;823.43;;;778.80;;
20486;SDS011;10402;49.012;8.370;2023-06-26T09:31:40;825.43;;;780.83;;
20486;SDS011;10402;49.012;8.370;2023-06-26T09:34:06;826.40;;;781.80;;
20486;SDS011;10402;49.012;8.370;2023-06-26T09:36:32;814.60;;;770.07;;
20486;SDS011;10402;49.012;8.370;2023-06-26T09:39:01;816.90;;;772.60;;
20486;SDS011;10402;49.012;8.370;2023-06-26T09:41:29;823.57;;;779.13;;
20486;SDS011;10402;49.012;8.370;2023-06-26T09:43:56;816.43;;;772.40;;
20486;SDS011;10402;49.012;8.370;2023-06-26T09:46:26;820.00;;;775.43;;
20486;SDS011;10402;49.012;8.370;2023-06-26T09:49:03;830.10;;;785.33;;
20486;SDS011;10402;49.012;8.370;2023-06-26T09:51:30;819.60;;;775.53;;
20486;SDS011;10402;49.012;8.370;2023-06-26T09:53:57;821.40;;;777.07;;
20486;SDS011;10402;49.012;8.370;2023-06-26T09:56:24;821.60;;;777.00;;
20486;SDS011;10402;49.012;8.370;2023-06-26T09:58:49;844.87;;;798.10;;
20486;SDS011;10402;49.012;8.370;2023-06-26T10:01:15;833.57;;;787.67;;
20486;SDS011;10402;49.012;8.370;2023-06-26T10:03:42;846.63;;;799.87;;
20486;SDS011;10402;49.012;8.370;2023-06-26T10:06:08;840.63;;;795.10;;
20486;SDS011;10402;49.012;8.370;2023-06-26T10:08:36;852.73;;;805.43;;
20486;SDS011;10402;49.012;8.370;2023-06-26T10:11:04;849.97;;;803.57;;
20486;SDS011;10402;49.012;8.370;2023-06-26T10:13:34;857.93;;;810.73;;
20486;SDS011;10402;49.012;8.370;2023-06-26T10:16:04;855.20;;;808.60;;
20486;SDS011;10402;49.012;8.370;2023-06-26T10:18:32;875.13;;;826.57;;
20486;SDS011;10402;49.012;8.370;2023-06-26T10:21:01;866.37;;;818.77;;
20486;SDS011;10402;49.012;8.370;2023-06-26T10:23:28;854.43;;;807.27;;
20486;SDS011;10402;49.012;8.370;2023-06-26T10:25:55;863.47;;;815.87;;
20486;SDS011;10402;49.012;8.370;2023-06-26T10:28:23;881.73;;;832.57;;
20486;SDS011;10402;49.012;8.370;2023-06-26T10:30:53;860.80;;;813.57;;
20486;SDS011;10402;49.012;8.370;2023-06-26T10:33:20;864.63;;;816.50;;
20486;SDS011;10402;49.012;8.370;2023-06-26T10:35:46;879.17;;;829.47;;
20486;SDS011;10402;49.012;8.370;2023-06-26T10:38:12;868.53;;;820.10;;
20486;SDS011;10402;49.012;8.370;2023-06-26T10:40:56;865.27;;;817.13;;
20486;SDS011;10402;49.012;8.370;2023-06-26T10:43:34;863.67;;;815.33;;
20486;SDS011;10402;49.012;8.370;2023-06-26T10:46:03;867.63;;;818.73;;
20486;SDS011;10402;49.012;8.370;2023-06-26T10:48:29;882.50;;;832.50;;
20486;SDS011;10402;49.012;8.370;2023-06-26T10:50:54;886.60;;;836.07;;
20486;SDS011;10402;49.012;8.370;2023-06-26T10:56:03;875.37;;;825.40;;
20486;SDS011;10402;49.012;8.370;2023-06-26T11:03:41;886.87;;;835.90;;
20486;SDS011;10402;49.012;8.370;2023-06-26T11:06:12;875.13;;;824.67;;
20486;SDS011;10402;49.012;8.370;2023-06-26T11:08:51;871.50;;;821.33;;
20486;SDS011;10402;49.012;8.370;2023-06-26T11:11:18;887.40;;;835.47;;
20486;SDS011;10402;49.012;8.370;2023-06-26T11:13:45;890.60;;;838.57;;
20486;SDS011;10402;49.012;8.370;2023-06-26T11:16:12;889.80;;;838.07;;
20486;SDS011;10402;49.012;8.370;2023-06-26T11:18:39;882.47;;;830.87;;
20486;SDS011;10402;49.012;8.370;2023-06-26T11:23:36;890.90;;;838.77;;
20486;SDS011;10402;49.012;8.370;2023-06-26T11:26:18;901.43;;;848.33;;
20486;SDS011;10402;49.012;8.370;2023-06-26T11:28:54;901.93;;;848.90;;
20486;SDS011;10402;49.012;8.370;2023-06-26T11:31:23;896.17;;;843.77;;
20486;SDS011;10402;49.012;8.370;2023-06-26T11:33:50;895.57;;;843.20;;
20486;SDS011;10402;49.012;8.370;2023-06-26T11:36:15;905.57;;;851.73;;
20486;SDS011;10402;49.012;8.370;2023-06-26T11:38:41;908.90;;;854.97;;
20486;SDS011;10402;49.012;8.370;2023-06-26T11:41:06;912.17;;;857.63;;
20486;SDS011;10402;49.012;8.370;2023-06-26T11:43:33;903.10;;;850.03;;
20486;SDS011;10402;49.012;8.370;2023-06-26T11:45:59;912.33;;;857.97;;
20486;SDS011;10402;49.012;8.370;2023-06-26T11:48:25;917.07;;;862.70;;
20486;SDS011;10402;49.012;8.370;2023-06-26T11:50:51;924.13;;;869.43;;
20486;SDS011;10402;49.012;8.370;2023-06-26T11:53:16;920.97;;;866.43;;
20486;SDS011;10402;49.012;8.370;2023-06-26T11:55:42;928.80;;;874.23;;
20486;SDS011;10402;49.012;8.370;2023-06-26T11:58:10;933.30;;;878.20;;
20486;SDS011;10402;49.012;8.370;2023-06-26T12:00:40;958.00;;;900.97;;
20486;SDS011;10402;49.012;8.370;2023-06-26T12:03:07;937.03;;;881.27;;
20486;SDS011;10402;49.012;8.370;2023-06-26T12:05:33;930.93;;;875.33;;
20486;SDS011;10402;49.012;8.370;2023-06-26T12:07:58;942.13;;;885.53;;
20486;SDS011;10402;49.012;8.370;2023-06-26T12:10:24;935.43;;;879.17;;
20486;SDS011;10402;49.012;8.370;2023-06-26T12:12:51;932.33;;;876.17;;
20486;SDS011;10402;49.012;8.370;2023-06-26T12:15:17;948.03;;;890.27;;
20486;SDS011;10402;49.012;8.370;2023-06-26T12:17:42;928.57;;;872.23;;
20486;SDS011;10402;49.012;8.370;2023-06-26T12:20:29;927.17;;;870.77;;
20486;SDS011;10402;49.012;8.370;2023-06-26T12:22:57;915.50;;;860.50;;
20486;SDS011;10402;49.012;8.370;2023-06-26T12:25:23;909.57;;;854.57;;
20486;SDS011;10402;49.012;8.370;2023-06-26T12:27:49;917.63;;;862.17;;
20486;SDS011;10402;49.012;8.370;2023-06-26T12:30:15;904.70;;;850.60;;
20486;SDS011;10402;49.012;8.370;2023-06-26T12:32:43;886.27;;;833.30;;
20486;SDS011;10402;49.012;8.370;2023-06-26T12:35:11;892.53;;;839.40;;
20486;SDS011;10402;49.012;8.370;2023-06-26T12:37:37;890.57;;;837.90;;
20486;SDS011;10402;49.012;8.370;2023-06-26T12:40:05;887.17;;;834.97;;
20486;SDS011;10402;49.012;8.370;2023-06-26T12:42:42;896.80;;;843.67;;
20486;SDS011;10402;49.012;8.370;2023-06-26T12:45:11;892.93;;;840.63;;
20486;SDS011;10402;49.012;8.370;2023-06-26T12:47:38;888.73;;;837.10;;
20486;SDS011;10402;49.012;8.370;2023-06-26T12:50:06;882.63;;;831.27;;
20486;SDS011;10402;49.012;8.370;2023-06-26T12:52:32;891.17;;;839.07;;
20486;SDS011;10402;49.012;8.370;2023-06-26T12:54:58;896.43;;;844.07;;
20486;SDS011;10402;49.012;8.370;2023-06-26T12:57:23;894.87;;;843.40;;
20486;SDS011;10402;49.012;8.370;2023-06-26T12:59:49;893.27;;;841.70;;
20486;SDS011;10402;49.012;8.370;2023-06-26T13:02:14;875.47;;;824.93;;
20486;SDS011;10402;49.012;8.370;2023-06-26T13:04:40;901.80;;;849.07;;
20486;SDS011;10402;49.012;8.370;2023-06-26T13:07:09;885.27;;;834.03;;
20486;SDS011;10402;49.012;8.370;2023-06-26T13:09:35;875.97;;;825.63;;
20486;SDS011;10402;49.012;8.370;2023-06-26T13:12:02;891.10;;;839.47;;
20486;SDS011;10402;49.012;8.370;2023-06-26T13:14:28;880.03;;;829.07;;
20486;SDS011;10402;49.012;8.370;2023-06-26T13:16:54;887.50;;;836.33;;
20486;SDS011;10402;49.012;8.370;2023-06-26T13:19:20;871.37;;;821.40;;
20486;SDS011;10402;49.012;8.370;2023-06-26T13:21:45;880.37;;;829.60;;
20486;SDS011;10402;49.012;8.370;2023-06-26T13:24:11;882.67;;;831.23;;
20486;SDS011;10402;49.012;8.370;2023-06-26T13:26:37;889.37;;;837.63;;
20486;SDS011;10402;49.012;8.370;2023-06-26T13:29:03;894.37;;;842.20;;
20486;SDS011;10402;49.012;8.370;2023-06-26T13:31:29;887.47;;;835.77;;
20486;SDS011;10402;49.012;8.370;2023-06-26T13:33:56;880.83;;;829.93;;
20486;SDS011;10402;49.012;8.370;2023-06-26T13:36:23;888.37;;;837.03;;
20486;SDS011;10402;49.012;8.370;2023-06-26T13:38:49;889.77;;;838.47;;
20486;SDS011;10402;49.012;8.370;2023-06-26T13:41:20;894.30;;;842.30;;
20486;SDS011;10402;49.012;8.370;2023-06-26T13:43:49;891.63;;;839.83;;
20486;SDS011;10402;49.012;8.370;2023-06-26T13:46:15;890.80;;;839.37;;
20486;SDS011;10402;49.012;8.370;2023-06-26T13:48:41;894.83;;;843.33;;
20486;SDS011;10402;49.012;8.370;2023-06-26T13:51:06;898.43;;;846.73;;
20486;SDS011;10402;49.012;8.370;2023-06-26T13:53:32;903.80;;;851.13;;
20486;SDS011;10402;49.012;8.370;2023-06-26T13:55:57;899.23;;;847.10;;
20486;SDS011;10402;49.012;8.370;2023-06-26T13:58:23;906.27;;;853.67;;
20486;SDS011;10402;49.012;8.370;2023-06-26T14:00:51;893.07;;;841.77;;
20486;SDS011;10402;49.012;8.370;2023-06-26T14:03:17;903.57;;;850.77;;
20486;SDS011;10402;49.012;8.370;2023-06-26T14:05:43;897.93;;;845.53;;
20486;SDS011;10402;49.012;8.370;2023-06-26T14:08:08;899.83;;;847.83;;